Time;durP1;ratioP1;P1;durP2;ratioP2;P2;SDS_P1;SDS_P2;PMS_P1;PMS_P2;Temp;Humidity;BMP_temperature;BMP_pressure;BME280_temperature;BME280_humidity;BME280_pressure;Samples;Min_cycle;Max_cycle;Signal;HPM_P1;HPM_P2
2022/01/14 00:02:08;;;;;;;31.00;12.65;;;6.10;99.90;;;;;;4837833;29;19924;-70
2022/01/14 00:04:35;;;;;;;29.90;13.57;;;6.20;99.90;;;;;;4836922;29;20050;-70
2022/01/14 00:07:00;;;;;;;;;;;6.20;99.90;;;;;;4822086;29;20535;-70
2022/01/14 00:09:27;;;;;;;28.40;13.23;;;6.20;99.90;;;;;;4837053;29;19928;-69
2022/01/14 00:11:56;;;;;;;;;;;6.20;99.90;;;;;;4837673;29;20475;-70
2022/01/14 00:14:38;;;;;;;31.92;13.35;;;6.10;99.90;;;;;;4837160;29;19924;-69
2022/01/14 00:17:15;;;;;;;30.33;13.00;;;6.20;99.90;;;;;;4836418;29;20098;-70
2022/01/14 00:19:42;;;;;;;25.60;13.00;;;6.20;99.90;;;;;;4854293;29;20049;-69
2022/01/14 00:22:12;;;;;;;31.00;14.10;;;6.20;99.90;;;;;;4836717;29;20050;-69
2022/01/14 00:35:23;;;;;;;28.75;12.07;;;6.20;99.90;;;;;;4853908;29;20050;-69
2022/01/14 00:37:48;;;;;;;21.88;10.93;;;6.20;99.90;;;;;;4851252;29;20129;-69
2022/01/14 00:40:14;;;;;;;29.27;12.97;;;6.20;99.90;;;;;;4836932;29;20053;-69
2022/01/14 00:42:40;;;;;;;25.92;11.85;;;6.20;99.90;;;;;;4836511;29;20046;-69
2022/01/14 00:45:07;;;;;;;33.88;14.18;;;6.20;99.90;;;;;;4853458;29;20041;-70
2022/01/14 00:47:37;;;;;;;29.65;13.15;;;6.20;99.90;;;;;;4836163;29;20062;-69
2022/01/14 00:50:04;;;;;;;30.50;13.55;;;6.20;99.90;;;;;;4836608;29;20058;-69
2022/01/14 00:52:30;;;;;;;33.13;13.30;;;6.10;99.90;;;;;;4851632;29;20060;-69
2022/01/14 00:54:55;;;;;;;47.47;16.20;;;6.20;99.90;;;;;;4852147;29;20132;-69
2022/01/14 01:00:06;;;;;;;34.58;13.50;;;6.20;99.90;;;;;;4852574;29;20147;-69
2022/01/14 01:02:32;;;;;;;32.60;13.45;;;6.20;99.90;;;;;;4836426;29;20098;-69
2022/01/14 01:04:57;;;;;;;28.40;13.50;;;6.20;99.90;;;;;;4835881;29;20118;-70
2022/01/14 01:07:23;;;;;;;31.90;13.60;;;6.10;99.90;;;;;;4836431;29;20058;-69
2022/01/14 01:09:50;;;;;;;29.33;13.52;;;6.10;99.90;;;;;;4851153;29;20076;-69
2022/01/14 01:12:32;;;;;;;33.15;14.88;;;6.10;99.90;;;;;;4853165;29;20049;-69
2022/01/14 01:15:09;;;;;;;26.92;14.40;;;6.00;99.90;;;;;;4835925;29;20404;-69
2022/01/14 01:17:35;;;;;;;41.38;15.32;;;6.00;99.90;;;;;;4852827;29;20058;-70
2022/01/14 01:20:09;;;;;;;24.67;13.38;;;6.00;99.90;;;;;;4835645;29;20126;-69
2022/01/14 01:22:35;;;;;;;26.42;14.20;;;6.10;99.90;;;;;;4835416;29;20046;-69
2022/01/14 01:25:00;;;;;;;32.40;14.67;;;6.10;99.90;;;;;;4852476;29;20115;-69
2022/01/14 01:27:28;;;;;;;30.23;13.47;;;6.10;99.90;;;;;;4835813;29;20404;-70
2022/01/14 01:30:10;;;;;;;33.75;13.95;;;6.10;99.90;;;;;;4835265;29;20302;-69
2022/01/14 01:32:36;;;;;;;27.40;13.68;;;6.10;99.90;;;;;;4835527;29;20081;-69
2022/01/14 01:35:01;;;;;;;30.80;14.27;;;6.10;99.90;;;;;;4835931;29;20133;-69
2022/01/14 01:37:27;;;;;;;29.93;13.57;;;6.10;99.90;;;;;;4852444;29;20054;-69
2022/01/14 01:39:52;;;;;;;36.67;14.80;;;6.10;99.90;;;;;;4850558;29;20058;-69
2022/01/14 01:42:26;;;;;;;42.50;15.27;;;6.10;99.90;;;;;;4850807;29;20145;-70
2022/01/14 01:44:52;;;;;;;35.60;14.25;;;6.10;99.90;;;;;;4850813;29;20089;-69
2022/01/14 01:47:19;;;;;;;34.17;14.82;;;6.10;99.90;;;;;;4835807;29;20130;-69
2022/01/14 01:49:45;;;;;;;28.48;13.98;;;6.20;99.90;;;;;;4835346;29;20054;-69
2022/01/14 01:52:10;;;;;;;36.73;14.67;;;6.20;99.90;;;;;;4852400;29;20052;-69
2022/01/14 01:54:36;;;;;;;28.70;14.33;;;6.20;99.90;;;;;;4835165;29;20062;-69
2022/01/14 01:57:02;;;;;;;35.97;14.60;;;6.10;99.90;;;;;;4835049;29;20086;-69
2022/01/14 01:59:28;;;;;;;32.55;15.30;;;6.20;99.90;;;;;;4850202;29;20227;-69
2022/01/14 02:02:00;;;;;;;31.90;14.77;;;6.20;99.90;;;;;;4835727;29;20050;-70
2022/01/14 02:04:26;;;;;;;45.47;15.38;;;6.20;99.90;;;;;;4849878;29;20107;-70
2022/01/14 02:06:54;;;;;;;33.92;14.68;;;6.20;99.90;;;;;;4835456;29;20057;-69
2022/01/14 02:09:19;;;;;;;44.08;16.13;;;6.20;99.90;;;;;;4834226;29;20049;-69
2022/01/14 02:11:45;;;;;;;30.65;15.15;;;6.20;99.90;;;;;;4852310;29;20132;-69
2022/01/14 02:17:28;;;;;;;34.58;15.35;;;6.20;99.90;;;;;;4761881;30;20055;-69
2022/01/14 02:22:57;;;;;;;39.78;14.70;;;6.20;99.90;;;;;;4771095;30;20091;-69
2022/01/14 02:25:30;;;;;;;30.13;15.15;;;6.20;99.90;;;;;;4761598;30;20156;-70
2022/01/14 02:28:02;;;;;;;28.17;14.82;;;6.20;99.90;;;;;;4761319;30;20071;-69
2022/01/14 02:30:31;;;;;;;33.83;15.13;;;6.20;99.90;;;;;;4761849;30;20063;-69
2022/01/14 02:32:57;;;;;;;34.53;16.05;;;6.30;99.90;;;;;;4761581;30;20062;-69
2022/01/14 02:35:23;;;;;;;36.97;15.73;;;6.20;99.90;;;;;;4761239;30;20067;-69
2022/01/14 02:37:49;;;;;;;35.08;15.73;;;6.20;99.90;;;;;;4761514;30;20063;-69
2022/01/14 02:40:16;;;;;;;47.85;16.77;;;6.20;99.90;;;;;;4762133;30;20220;-69
2022/01/14 02:42:41;;;;;;;;;;;6.20;99.90;;;;;;4762401;30;20063;-70
2022/01/14 02:45:10;;;;;;;35.90;16.45;;;6.20;99.90;;;;;;4776566;30;19929;-69
2022/01/14 02:47:37;;;;;;;30.90;15.95;;;6.20;99.90;;;;;;4776261;30;20059;-69
2022/01/14 02:50:07;;;;;;;39.25;16.38;;;6.30;99.90;;;;;;4776629;30;20052;-69
2022/01/14 02:55:18;;;;;;;34.80;17.48;;;6.30;99.90;;;;;;4826439;29;20065;-70
2022/01/14 02:57:46;;;;;;;34.17;17.37;;;6.30;99.90;;;;;;4814937;29;20141;-69
2022/01/14 03:00:12;;;;;;;38.60;17.98;;;6.30;99.90;;;;;;4818889;29;20314;-70
2022/01/14 03:02:41;;;;;;;;;;;6.30;99.90;;;;;;4851418;29;20151;-69
2022/01/14 03:05:08;;;;;;;33.33;17.35;;;6.20;99.90;;;;;;4835010;29;19982;-69
2022/01/14 03:07:35;;;;;;;34.85;17.63;;;6.30;99.90;;;;;;4810457;29;20100;-69
2022/01/14 03:10:01;;;;;;;32.47;17.30;;;6.30;99.90;;;;;;4831387;29;20054;-70
2022/01/14 03:12:27;;;;;;;37.05;18.77;;;6.30;99.90;;;;;;4829536;29;20124;-70
2022/01/14 03:14:53;;;;;;;39.05;18.70;;;6.30;99.90;;;;;;4849679;29;20093;-69
2022/01/14 03:17:19;;;;;;;33.95;18.08;;;6.30;99.90;;;;;;4850558;29;20046;-69
2022/01/14 03:19:46;;;;;;;35.75;17.67;;;6.30;99.90;;;;;;4834193;29;20050;-69
2022/01/14 03:22:27;;;;;;;35.40;18.27;;;6.30;99.90;;;;;;4850359;29;20054;-70
2022/01/14 03:27:19;;;;;;;34.63;16.87;;;6.30;99.90;;;;;;4833926;29;20102;-69
2022/01/14 03:29:46;;;;;;;35.58;18.42;;;6.30;99.90;;;;;;4832556;29;20054;-69
2022/01/14 03:32:12;;;;;;;;;;;6.40;99.90;;;;;;4834126;29;20053;-69
2022/01/14 03:34:38;;;;;;;31.77;17.85;;;6.30;99.90;;;;;;4836386;29;19932;-69
2022/01/14 03:37:04;;;;;;;36.78;17.05;;;6.30;99.90;;;;;;4853201;29;20050;-69
2022/01/14 03:39:30;;;;;;;36.80;17.65;;;6.40;99.90;;;;;;4836118;29;20078;-69
2022/01/14 03:41:56;;;;;;;37.20;17.27;;;6.40;99.90;;;;;;4853281;29;20070;-69
2022/01/14 03:44:22;;;;;;;31.77;17.00;;;6.40;99.90;;;;;;4851994;29;20086;-69
2022/01/14 03:46:47;;;;;;;33.43;19.20;;;6.40;99.90;;;;;;4818306;29;20303;-69
2022/01/14 03:49:13;;;;;;;36.97;18.10;;;6.40;99.90;;;;;;4846810;29;20038;-70
2022/01/14 03:51:39;;;;;;;35.58;18.33;;;6.40;99.90;;;;;;4835905;29;20110;-69
2022/01/14 03:54:05;;;;;;;39.95;19.20;;;6.40;99.90;;;;;;4835710;29;20069;-69
2022/01/14 03:56:31;;;;;;;34.95;18.63;;;6.40;99.90;;;;;;4853206;29;20327;-69
2022/01/14 03:58:57;;;;;;;36.55;17.70;;;6.40;99.90;;;;;;4853016;29;20053;-70
2022/01/14 04:01:23;;;;;;;42.30;19.40;;;6.40;99.90;;;;;;4852672;29;20094;-69
2022/01/14 04:03:50;;;;;;;37.40;18.00;;;6.40;99.90;;;;;;4852900;29;20114;-69
2022/01/14 04:06:16;;;;;;;34.60;17.02;;;6.40;99.90;;;;;;4851565;29;20133;-69
2022/01/14 04:08:42;;;;;;;37.75;17.85;;;6.40;99.90;;;;;;4835722;29;20050;-69
2022/01/14 04:11:09;;;;;;;40.05;18.92;;;6.40;99.90;;;;;;4852429;29;20126;-69
2022/01/14 04:13:48;;;;;;;38.60;17.83;;;6.40;99.90;;;;;;4852728;29;20136;-69
2022/01/14 04:16:15;;;;;;;33.03;17.75;;;6.40;99.90;;;;;;4852923;29;20053;-69
2022/01/14 04:18:41;;;;;;;34.00;18.50;;;6.40;99.90;;;;;;4817661;29;20053;-70
2022/01/14 04:21:07;;;;;;;38.42;17.80;;;6.40;99.90;;;;;;4841389;29;20050;-69
2022/01/14 04:23:33;;;;;;;32.40;17.73;;;6.40;99.90;;;;;;4816201;29;20091;-69
2022/01/14 04:25:59;;;;;;;37.17;17.90;;;6.40;99.90;;;;;;4802877;29;20105;-69
2022/01/14 04:28:28;;;;;;;35.17;18.75;;;6.40;99.90;;;;;;4803396;29;1105647;-68
2022/01/14 04:30:54;;;;;;;37.00;18.60;;;6.30;99.90;;;;;;4836677;29;20459;-69
2022/01/14 04:33:26;;;;;;;34.03;16.77;;;6.30;99.90;;;;;;4853047;29;20050;-69
2022/01/14 04:35:54;;;;;;;36.30;20.30;;;6.30;99.90;;;;;;4836649;29;20079;-69
2022/01/14 04:38:21;;;;;;;31.85;18.08;;;6.30;99.90;;;;;;4836629;29;20506;-69
2022/01/14 04:40:46;;;;;;;;;;;6.20;99.90;;;;;;4836975;29;20076;-69
2022/01/14 04:43:16;;;;;;;31.20;19.05;;;6.20;99.90;;;;;;4852839;29;19925;-69
2022/01/14 04:45:54;;;;;;;38.25;19.80;;;6.20;99.90;;;;;;4836750;29;20122;-70
2022/01/14 04:48:21;;;;;;;36.17;18.67;;;6.20;99.90;;;;;;4851445;29;20483;-69
2022/01/14 04:50:46;;;;;;;37.25;19.48;;;6.20;99.90;;;;;;4836452;29;20088;-69
2022/01/14 04:53:13;;;;;;;33.60;19.83;;;6.20;99.90;;;;;;4820245;29;20061;-70
2022/01/14 04:55:38;;;;;;;44.92;20.77;;;6.20;99.90;;;;;;4835995;29;20102;-70
2022/01/14 04:58:04;;;;;;;38.25;19.98;;;6.20;99.90;;;;;;4836208;29;20057;-69
2022/01/14 05:00:30;;;;;;;39.83;21.13;;;6.20;99.90;;;;;;4851291;29;20062;-69
2022/01/14 05:02:56;;;;;;;38.33;19.20;;;6.20;99.90;;;;;;4852999;29;20056;-69
2022/01/14 05:05:24;;;;;;;40.97;18.60;;;6.20;99.90;;;;;;4835969;29;20111;-70
2022/01/14 05:07:51;;;;;;;36.13;19.73;;;6.20;99.90;;;;;;4852946;29;20062;-69
2022/01/14 05:12:44;;;;;;;41.50;19.38;;;6.20;99.90;;;;;;4852878;29;20050;-69
2022/01/14 05:15:11;;;;;;;35.85;18.25;;;6.30;99.90;;;;;;4852392;29;20093;-69
2022/01/14 05:17:37;;;;;;;37.08;18.48;;;6.20;99.90;;;;;;4836036;29;20054;-69
2022/01/14 05:20:04;;;;;;;35.65;18.90;;;6.30;99.90;;;;;;4852583;29;20461;-69
2022/01/14 05:22:30;;;;;;;31.67;17.85;;;6.30;99.90;;;;;;4849925;29;20125;-69
2022/01/14 05:24:56;;;;;;;33.42;18.85;;;6.30;99.90;;;;;;4852383;29;20120;-69
2022/01/14 05:27:22;;;;;;;37.78;19.17;;;6.30;99.90;;;;;;4834388;29;20150;-69
2022/01/14 05:29:48;;;;;;;34.67;17.77;;;6.30;99.90;;;;;;4825141;29;20538;-69
2022/01/14 05:32:15;;;;;;;36.13;19.50;;;6.30;99.90;;;;;;4835706;29;20097;-69
2022/01/14 05:34:43;;;;;;;37.03;18.30;;;6.30;99.90;;;;;;4835206;29;20050;-69
2022/01/14 05:37:09;;;;;;;31.38;18.65;;;6.30;99.90;;;;;;4835455;29;20106;-69
2022/01/14 05:39:35;;;;;;;35.30;18.38;;;6.30;99.90;;;;;;4850717;29;20071;-69
2022/01/14 05:42:02;;;;;;;30.35;18.05;;;6.30;99.90;;;;;;4820630;29;20053;-70
2022/01/14 05:44:28;;;;;;;32.25;17.70;;;6.30;99.90;;;;;;4835556;29;20045;-69
2022/01/14 05:46:57;;;;;;;38.33;18.67;;;6.30;99.90;;;;;;4835145;29;20171;-70
2022/01/14 05:49:24;;;;;;;31.10;18.23;;;6.30;99.90;;;;;;4852220;29;20046;-69
2022/01/14 05:51:50;;;;;;;36.45;19.48;;;6.30;99.90;;;;;;4835566;29;20473;-69
2022/01/14 05:54:17;;;;;;;35.22;18.40;;;6.30;99.90;;;;;;4835002;29;20066;-70
2022/01/14 05:56:43;;;;;;;38.03;19.20;;;6.30;99.90;;;;;;4846826;29;20081;-69
2022/01/14 05:59:09;;;;;;;34.83;17.77;;;6.30;99.90;;;;;;4851899;29;20118;-70
2022/01/14 06:01:35;;;;;;;37.78;18.25;;;6.30;99.90;;;;;;4835111;29;20310;-70
2022/01/14 06:04:02;;;;;;;32.63;18.07;;;6.30;99.90;;;;;;4834984;29;20401;-69
2022/01/14 06:06:28;;;;;;;36.58;18.52;;;6.30;99.90;;;;;;4835524;29;20118;-70
2022/01/14 06:08:54;;;;;;;35.38;19.60;;;6.30;99.90;;;;;;4834751;29;20155;-70
2022/01/14 06:11:20;;;;;;;47.35;18.70;;;6.30;99.90;;;;;;4851910;29;20050;-70
2022/01/14 06:13:46;;;;;;;39.72;19.13;;;6.30;99.90;;;;;;4851851;29;20045;-69
2022/01/14 06:16:12;;;;;;;34.50;17.80;;;6.30;99.90;;;;;;4851692;29;20074;-70
2022/01/14 06:18:38;;;;;;;37.80;18.80;;;6.30;99.90;;;;;;4849805;29;20083;-70
2022/01/14 06:21:04;;;;;;;39.57;18.33;;;6.30;99.90;;;;;;4834625;29;20053;-70
2022/01/14 06:23:30;;;;;;;32.42;18.05;;;6.30;99.90;;;;;;4834489;29;20305;-69
2022/01/14 06:25:56;;;;;;;31.85;18.02;;;6.30;99.90;;;;;;4834789;29;20069;-70
2022/01/14 06:28:22;;;;;;;33.92;17.67;;;6.30;99.90;;;;;;4851523;29;20072;-70
2022/01/14 06:30:48;;;;;;;38.80;17.48;;;6.30;99.90;;;;;;4834473;29;20079;-69
2022/01/14 06:33:14;;;;;;;38.80;16.95;;;6.30;99.90;;;;;;4849708;29;20434;-70
2022/01/14 06:35:39;;;;;;;39.05;17.50;;;6.30;99.90;;;;;;4851611;29;20105;-69
2022/01/14 06:38:05;;;;;;;32.67;16.30;;;6.30;99.90;;;;;;4849761;29;20102;-69
2022/01/14 06:40:32;;;;;;;35.88;18.30;;;6.30;99.90;;;;;;4834553;29;20049;-69
2022/01/14 06:42:58;;;;;;;39.70;17.60;;;6.30;99.90;;;;;;4849743;29;20050;-70
2022/01/14 06:45:24;;;;;;;41.90;18.30;;;6.30;99.90;;;;;;4851381;29;20061;-70
2022/01/14 06:47:50;;;;;;;34.42;16.80;;;6.30;99.90;;;;;;4834640;29;20110;-70
2022/01/14 06:50:17;;;;;;;32.90;16.05;;;6.30;99.90;;;;;;4834386;29;20202;-70
2022/01/14 06:52:42;;;;;;;34.17;16.10;;;6.30;99.90;;;;;;4815906;29;20058;-70
2022/01/14 06:55:09;;;;;;;32.15;15.93;;;6.40;99.90;;;;;;4834697;29;20084;-70
2022/01/14 06:57:35;;;;;;;32.50;16.65;;;6.30;99.90;;;;;;4849755;29;20049;-68
2022/01/14 07:00:07;;;;;;;31.58;14.60;;;6.30;99.90;;;;;;4819448;29;20061;-71
2022/01/14 07:02:33;;;;;;;27.23;14.93;;;6.40;99.90;;;;;;4845075;29;20136;-70
2022/01/14 07:04:59;;;;;;;27.92;14.45;;;6.40;99.90;;;;;;4834441;29;20062;-71
2022/01/14 07:07:24;;;;;;;29.67;14.00;;;6.40;99.90;;;;;;4850995;29;20046;-70
2022/01/14 07:09:57;;;;;;;30.67;14.40;;;6.40;99.90;;;;;;4850880;29;20057;-68
2022/01/14 07:12:24;;;;;;;34.85;13.73;;;6.40;99.90;;;;;;4850650;29;20050;-70
2022/01/14 07:14:51;;;;;;;33.85;14.15;;;6.40;99.90;;;;;;4850369;29;20054;-69
2022/01/14 07:17:16;;;;;;;25.08;13.07;;;6.40;99.90;;;;;;4834233;29;20058;-70
2022/01/14 07:19:42;;;;;;;25.63;14.00;;;6.40;99.90;;;;;;4850552;29;20042;-70
2022/01/14 07:22:08;;;;;;;26.20;12.53;;;6.40;99.90;;;;;;4818026;29;20093;-71
2022/01/14 07:24:34;;;;;;;29.95;13.48;;;6.40;99.90;;;;;;4850384;29;20114;-69
2022/01/14 07:27:05;;;;;;;30.97;12.57;;;6.40;99.90;;;;;;4851246;29;20050;-69
2022/01/14 07:29:31;;;;;;;27.02;11.90;;;6.40;99.90;;;;;;4850296;29;20164;-69
2022/01/14 07:31:56;;;;;;;28.92;11.15;;;6.40;99.90;;;;;;4834373;29;20057;-73
2022/01/14 07:34:22;;;;;;;34.15;12.27;;;6.40;99.90;;;;;;4833878;29;20208;-70
2022/01/14 07:36:48;;;;;;;28.40;11.13;;;6.40;99.90;;;;;;4833864;29;20114;-71
2022/01/14 07:39:13;;;;;;;30.77;12.10;;;6.40;99.90;;;;;;4818441;29;20117;-70
2022/01/14 07:41:39;;;;;;;35.60;12.70;;;6.40;99.90;;;;;;4849942;29;20038;-73
2022/01/14 07:44:05;;;;;;;29.30;11.13;;;6.40;99.90;;;;;;4850075;29;20046;-71
2022/01/14 07:46:31;;;;;;;25.17;11.98;;;6.40;99.90;;;;;;4833319;29;20050;-78
2022/01/14 07:48:58;;;;;;;24.40;10.77;;;6.40;99.90;;;;;;4824487;29;20098;-74
2022/01/14 07:51:23;;;;;;;26.73;10.40;;;6.40;99.90;;;;;;4845822;29;20102;-69
2022/01/14 07:53:49;;;;;;;27.83;10.63;;;6.40;99.90;;;;;;4849499;29;20050;-67
2022/01/14 07:56:15;;;;;;;35.30;10.15;;;6.40;99.90;;;;;;4849719;29;20477;-69
2022/01/14 07:58:41;;;;;;;29.77;10.47;;;6.50;99.90;;;;;;4849884;29;20061;-70
2022/01/14 08:01:08;;;;;;;30.95;11.60;;;6.40;99.90;;;;;;4850019;29;20358;-69
2022/01/14 08:03:35;;;;;;;29.23;9.82;;;6.50;99.90;;;;;;4850515;29;20053;-69
2022/01/14 08:06:01;;;;;;;32.33;10.43;;;6.50;99.90;;;;;;4833647;29;20053;-68
2022/01/14 08:08:28;;;;;;;24.73;9.50;;;6.50;99.90;;;;;;4850376;29;20503;-69
2022/01/14 08:10:55;;;;;;;22.77;10.80;;;6.50;99.90;;;;;;4850469;29;20050;-70
2022/01/14 08:13:20;;;;;;;25.42;9.30;;;6.50;99.90;;;;;;4847634;29;20087;-69
2022/01/14 08:15:46;;;;;;;25.47;9.67;;;6.50;99.90;;;;;;4850145;29;20054;-70
2022/01/14 08:18:12;;;;;;;26.17;9.23;;;6.50;99.90;;;;;;4818067;29;20108;-67
2022/01/14 08:20:38;;;;;;;26.87;8.60;;;6.50;99.90;;;;;;4836631;29;20053;-69
2022/01/14 08:23:04;;;;;;;23.77;9.70;;;6.50;99.90;;;;;;4853038;29;20050;-67
2022/01/14 08:25:30;;;;;;;28.10;8.57;;;6.50;99.90;;;;;;4833321;29;20153;-67
2022/01/14 08:27:56;;;;;;;;;;;6.60;99.90;;;;;;4820889;29;20295;-67
2022/01/14 08:30:22;;;;;;;23.95;8.95;;;6.50;99.90;;;;;;4852163;29;19924;-67
2022/01/14 08:32:47;;;;;;;23.83;9.07;;;6.60;99.90;;;;;;4836721;29;20080;-67
2022/01/14 08:35:13;;;;;;;22.10;9.33;;;6.60;99.90;;;;;;4835340;29;20046;-67
2022/01/14 08:37:39;;;;;;;26.70;8.80;;;6.60;99.90;;;;;;4836797;29;20073;-67
2022/01/14 08:40:07;;;;;;;21.83;9.05;;;6.60;99.90;;;;;;4853674;29;20046;-67
2022/01/14 08:42:33;;;;;;;16.30;7.47;;;6.70;99.90;;;;;;4836727;29;20066;-67
2022/01/14 08:44:59;;;;;;;20.33;8.20;;;6.70;99.90;;;;;;4836300;29;20086;-68
2022/01/14 08:47:25;;;;;;;26.98;8.10;;;6.70;99.90;;;;;;4853536;29;20046;-67
2022/01/14 08:49:50;;;;;;;27.13;8.35;;;6.70;99.90;;;;;;4853491;29;20148;-67
2022/01/14 08:52:16;;;;;;;20.57;8.10;;;6.70;99.90;;;;;;4836241;29;20104;-67
2022/01/14 08:54:42;;;;;;;22.80;8.10;;;6.70;99.90;;;;;;4852830;29;20050;-67
2022/01/14 08:57:08;;;;;;;19.95;7.97;;;6.80;99.90;;;;;;4836351;29;20441;-67
2022/01/14 08:59:34;;;;;;;29.00;8.60;;;6.80;99.90;;;;;;4853196;29;20065;-67
2022/01/14 09:02:00;;;;;;;27.45;8.48;;;6.80;99.90;;;;;;4836545;29;20119;-67
2022/01/14 09:04:26;;;;;;;30.70;9.52;;;6.80;99.90;;;;;;4836134;29;20060;-68
2022/01/14 09:06:52;;;;;;;33.42;8.07;;;6.80;99.90;;;;;;4835998;29;20073;-71
2022/01/14 09:09:17;;;;;;;18.83;7.20;;;6.90;99.90;;;;;;4852499;29;20061;-71
2022/01/14 09:11:43;;;;;;;21.80;8.10;;;6.90;99.90;;;;;;4830373;29;20542;-69
2022/01/14 09:14:09;;;;;;;16.60;7.95;;;6.90;99.90;;;;;;4835682;29;20434;-68
2022/01/14 09:16:35;;;;;;;18.63;7.07;;;6.90;99.90;;;;;;4835574;29;20406;-71
2022/01/14 09:19:02;;;;;;;22.02;7.80;;;6.90;99.90;;;;;;4852613;29;20162;-74
2022/01/14 09:21:27;;;;;;;28.73;8.18;;;6.90;99.90;;;;;;4835357;29;20065;-75
2022/01/14 09:24:05;;;;;;;17.42;6.50;;;7.00;99.90;;;;;;4852626;29;20050;-70
2022/01/14 09:26:36;;;;;;;18.75;7.15;;;7.00;99.90;;;;;;4835856;29;20046;-70
2022/01/14 09:29:07;;;;;;;15.50;6.60;;;7.00;99.90;;;;;;4824357;29;20087;-70
2022/01/14 09:31:35;;;;;;;18.38;7.22;;;7.10;99.90;;;;;;4833618;29;20102;-65
2022/01/14 09:34:00;;;;;;;15.77;7.05;;;7.00;99.90;;;;;;4835907;29;20057;-72
2022/01/14 09:36:26;;;;;;;24.13;6.60;;;7.10;99.90;;;;;;4851365;29;20097;-70
2022/01/14 09:38:52;;;;;;;19.42;8.07;;;7.10;99.90;;;;;;4851942;29;20505;-69
2022/01/14 09:41:18;;;;;;;16.80;4.70;;;7.10;99.90;;;;;;4820336;29;20073;-69
2022/01/14 09:43:45;;;;;;;;;;;7.10;99.90;;;;;;4836158;29;20773;-70
2022/01/14 09:46:11;;;;;;;13.05;5.07;;;7.10;99.90;;;;;;4835563;29;20000;-69
2022/01/14 09:48:38;;;;;;;17.40;5.88;;;7.10;99.90;;;;;;4852452;29;20054;-70
2022/01/14 09:51:05;;;;;;;15.13;5.43;;;7.20;99.90;;;;;;4834982;29;20110;-69
2022/01/14 09:53:32;;;;;;;16.73;5.50;;;7.20;99.90;;;;;;4835229;29;20114;-68
2022/01/14 09:55:58;;;;;;;18.85;5.53;;;7.20;99.90;;;;;;4834835;29;20054;-73
2022/01/14 09:58:25;;;;;;;14.32;5.22;;;7.30;99.90;;;;;;4852039;29;20378;-68
2022/01/14 10:01:04;;;;;;;20.75;5.28;;;7.30;99.90;;;;;;4835456;29;20089;-68
2022/01/14 10:03:31;;;;;;;21.10;5.63;;;7.30;99.90;;;;;;4851849;29;20061;-68
2022/01/14 10:05:57;;;;;;;19.55;5.68;;;7.30;99.90;;;;;;4835190;29;20057;-68
2022/01/14 10:08:26;;;;;;;18.98;4.63;;;7.30;99.90;;;;;;4819667;29;20081;-68
2022/01/14 10:11:01;;;;;;;16.65;4.85;;;7.40;99.90;;;;;;4851812;29;20069;-68
2022/01/14 10:13:30;;;;;;;16.80;4.35;;;7.40;99.90;;;;;;4835456;29;20054;-68
2022/01/14 10:16:16;;;;;;;15.00;5.03;;;7.40;99.90;;;;;;4835012;29;20058;-69
2022/01/14 10:18:48;;;;;;;16.88;4.35;;;7.40;99.90;;;;;;4835016;29;20050;-69
2022/01/14 10:21:14;;;;;;;12.73;3.72;;;7.40;99.90;;;;;;4834213;29;20095;-70
2022/01/14 10:23:45;;;;;;;18.20;4.20;;;7.40;99.90;;;;;;4851222;29;20109;-67
2022/01/14 10:26:13;;;;;;;14.40;4.47;;;7.40;99.90;;;;;;4851483;29;20049;-70
2022/01/14 10:29:00;;;;;;;16.27;4.40;;;7.40;99.90;;;;;;4819602;29;20071;-70
2022/01/14 10:31:37;;;;;;;16.10;4.35;;;7.40;99.90;;;;;;4808988;29;20055;-72
2022/01/14 10:34:16;;;;;;;15.35;4.80;;;7.40;99.90;;;;;;4845169;29;20081;-70
2022/01/14 10:36:44;;;;;;;19.20;5.47;;;7.40;99.90;;;;;;4851099;29;20050;-71
2022/01/14 10:39:27;;;;;;;15.90;4.25;;;7.40;99.90;;;;;;4834950;29;20116;-69
2022/01/14 10:41:55;;;;;;;21.90;5.32;;;7.40;99.90;;;;;;4834239;29;20057;-73
2022/01/14 10:44:27;;;;;;;15.35;4.22;;;7.40;99.90;;;;;;4835100;29;20095;-70
2022/01/14 10:47:18;;;;;;;15.95;3.83;;;7.40;99.90;;;;;;4851214;29;20105;-71
2022/01/14 10:49:49;;;;;;;19.17;5.05;;;7.40;99.90;;;;;;4844765;29;20062;-71
2022/01/14 10:52:18;;;;;;;17.67;4.63;;;7.50;99.90;;;;;;4834502;29;20398;-69
2022/01/14 10:54:49;;;;;;;18.92;4.90;;;7.50;99.90;;;;;;4849673;29;20057;-72
2022/01/14 10:57:22;;;;;;;23.60;5.85;;;7.50;99.90;;;;;;4850597;29;20057;-70
2022/01/14 10:59:49;;;;;;;25.38;4.68;;;7.50;99.90;;;;;;4851219;29;20049;-69
2022/01/14 11:02:33;;;;;;;18.20;4.65;;;7.50;99.90;;;;;;4850799;29;20065;-69
2022/01/14 11:05:10;;;;;;;18.48;4.88;;;7.50;99.90;;;;;;4849803;29;20114;-70
2022/01/14 11:07:36;;;;;;;18.23;4.97;;;7.50;99.90;;;;;;4848576;29;20070;-71
2022/01/14 11:10:15;;;;;;;16.10;4.57;;;7.50;99.90;;;;;;4834590;29;20056;-72
2022/01/14 11:12:42;;;;;;;21.55;4.97;;;7.50;99.90;;;;;;4848640;29;20038;-72
2022/01/14 11:15:09;;;;;;;17.05;5.03;;;7.60;99.90;;;;;;4834297;29;20482;-71
2022/01/14 11:17:37;;;;;;;16.45;5.78;;;7.60;99.90;;;;;;4850915;29;20046;-70
2022/01/14 11:20:08;;;;;;;19.10;4.68;;;7.60;99.90;;;;;;4834379;29;20061;-69
2022/01/14 11:25:19;;;;;;;22.20;5.78;;;7.70;99.90;;;;;;4850839;29;20053;-68
2022/01/14 11:27:59;;;;;;;25.17;5.53;;;7.70;99.90;;;;;;4850773;29;20050;-70
2022/01/14 11:30:37;;;;;;;28.73;5.90;;;7.70;99.90;;;;;;4831327;29;20062;-67
2022/01/14 11:33:04;;;;;;;18.20;5.65;;;7.70;99.90;;;;;;4831160;29;20046;-70
2022/01/14 11:35:31;;;;;;;;;;;7.70;99.90;;;;;;4825963;29;20119;-68
2022/01/14 11:37:57;;;;;;;18.60;6.03;;;7.70;99.90;;;;;;4830989;29;19929;-70
2022/01/14 11:40:23;;;;;;;27.42;6.90;;;7.70;99.90;;;;;;4831217;29;20174;-70
2022/01/14 11:42:59;;;;;;;20.63;5.35;;;7.70;99.90;;;;;;4832569;29;20062;-73
2022/01/14 11:45:47;;;;;;;27.77;6.07;;;7.70;99.90;;;;;;4830699;29;20134;-76
2022/01/14 11:48:34;;;;;;;;;;;7.70;99.90;;;;;;4846828;29;20059;-69
2022/01/14 11:51:05;;;;;;;21.67;6.32;;;7.70;99.90;;;;;;4813229;29;19929;-76
2022/01/14 11:53:49;;;;;;;17.35;6.25;;;7.70;99.90;;;;;;4814218;29;20047;-71
2022/01/14 11:56:30;;;;;;;25.38;6.75;;;7.80;99.90;;;;;;4839880;29;20124;-79
2022/01/14 11:59:18;;;;;;;24.77;5.90;;;7.80;99.90;;;;;;4836038;29;20558;-70
2022/01/14 12:01:52;;;;;;;22.33;6.30;;;7.80;99.90;;;;;;4835815;29;20050;-69
2022/01/14 12:04:19;;;;;;;27.35;6.25;;;7.80;99.90;;;;;;4819104;29;20061;-73
2022/01/14 12:06:50;;;;;;;26.08;6.60;;;7.80;99.90;;;;;;4835744;29;20061;-69
2022/01/14 12:09:22;;;;;;;30.88;6.95;;;7.80;99.90;;;;;;4834403;29;20077;-69
2022/01/14 12:12:24;;;;;;;21.95;6.10;;;7.80;99.90;;;;;;4834206;29;20476;-68
2022/01/14 12:15:01;;;;;;;18.88;6.05;;;7.80;99.90;;;;;;4833871;29;20118;-67
2022/01/14 12:17:41;;;;;;;20.15;6.20;;;7.80;99.90;;;;;;4835202;29;20054;-73
2022/01/14 12:20:16;;;;;;;20.55;6.40;;;7.80;99.90;;;;;;4849232;29;20058;-69
2022/01/14 12:23:03;;;;;;;34.90;7.82;;;7.90;99.90;;;;;;4826770;29;20150;-70
2022/01/14 12:25:39;;;;;;;30.93;7.93;;;7.80;99.90;;;;;;4833317;29;20061;-69
2022/01/14 12:28:22;;;;;;;23.10;6.75;;;7.80;99.90;;;;;;4833582;29;20689;-69
2022/01/14 12:31:01;;;;;;;26.27;7.03;;;7.80;99.90;;;;;;4833609;29;20120;-67
2022/01/14 12:33:42;;;;;;;35.08;8.30;;;7.90;99.90;;;;;;4833958;29;20065;-69
2022/01/14 12:36:21;;;;;;;22.35;6.57;;;7.90;99.90;;;;;;4817416;29;20051;-68
2022/01/14 12:38:48;;;;;;;24.98;6.47;;;7.90;99.90;;;;;;4832806;29;20498;-75
2022/01/14 12:41:20;;;;;;;31.48;7.28;;;7.90;99.90;;;;;;4835127;29;20106;-78
2022/01/14 12:43:54;;;;;;;28.92;6.15;;;7.90;99.90;;;;;;4833551;29;20103;-69
2022/01/14 12:46:41;;;;;;;24.98;6.57;;;7.90;99.90;;;;;;4817218;29;20130;-73
2022/01/14 12:49:14;;;;;;;27.63;6.32;;;7.90;99.90;;;;;;4833300;29;20191;-72
2022/01/14 12:51:40;;;;;;;35.42;7.88;;;7.80;99.90;;;;;;4830763;29;20053;-68
2022/01/14 12:54:09;;;;;;;32.65;8.45;;;7.90;99.90;;;;;;4832917;29;20069;-66
2022/01/14 12:56:36;;;;;;;31.15;7.82;;;7.90;99.90;;;;;;4834860;29;20155;-66
2022/01/14 12:59:10;;;;;;;31.17;7.07;;;7.90;99.90;;;;;;4833478;29;20062;-69
2022/01/14 13:01:50;;;;;;;32.15;7.40;;;7.90;99.90;;;;;;4834902;29;20058;-68
2022/01/14 13:04:18;;;;;;;34.33;11.98;;;7.90;99.90;;;;;;4816220;29;20086;-68
2022/01/14 13:06:44;;;;;;;37.50;10.40;;;7.90;99.90;;;;;;4833911;29;20140;-68
2022/01/14 13:09:10;;;;;;;36.87;8.43;;;7.90;99.90;;;;;;4834197;29;20058;-68
2022/01/14 13:11:46;;;;;;;;;;;7.90;99.90;;;;;;4833575;29;20130;-68
2022/01/14 13:14:17;;;;;;;31.58;6.68;;;7.80;99.90;;;;;;4833060;29;19973;-68
2022/01/14 13:16:49;;;;;;;33.13;7.90;;;7.90;99.90;;;;;;4848120;29;20111;-68
2022/01/14 13:19:23;;;;;;;37.67;8.05;;;7.90;99.90;;;;;;4834259;29;20527;-69
2022/01/14 13:21:49;;;;;;;31.75;8.32;;;7.90;99.90;;;;;;4832817;29;20399;-69